createdAt,value
2022-10-17T00:01:11.821Z,1.20
2022-10-17T00:06:14.915Z,1.40
2022-10-17T00:11:19.475Z,1.33
2022-10-17T00:16:24.869Z,1.70
2022-10-17T00:21:26.720Z,1.50
2022-10-17T00:26:28.226Z,1.50
2022-10-17T00:31:29.673Z,1.67
2022-10-17T00:36:31.116Z,1.42
2022-10-17T00:41:33.569Z,1.50
2022-10-17T00:46:39.104Z,1.23
2022-10-17T00:51:49.408Z,1.55
2022-10-17T00:56:51.660Z,1.50
2022-10-17T01:02:10.826Z,1.50
2022-10-17T01:07:12.587Z,1.65
2022-10-17T01:12:20.299Z,1.50
2022-10-17T01:17:37.071Z,1.52
2022-10-17T01:22:59.068Z,2.05
2022-10-17T01:28:14.370Z,1.50
2022-10-17T01:33:35.150Z,1.27
2022-10-17T01:38:49.038Z,1.67
2022-10-17T01:43:58.485Z,2.10
2022-10-17T01:49:03.166Z,1.40
2022-10-17T01:54:07.992Z,2.17
2022-10-17T01:59:14.991Z,2.22
2022-10-17T02:04:16.516Z,1.85
2022-10-17T02:09:26.460Z,1.33
2022-10-17T02:15:05.989Z,1.70
2022-10-17T02:20:23.831Z,1.77
2022-10-17T02:25:40.323Z,1.40
2022-10-17T02:30:47.145Z,2.42
2022-10-17T02:35:53.504Z,1.65
2022-10-17T02:40:56.076Z,1.60
2022-10-17T02:45:57.921Z,1.40
2022-10-17T02:51:05.427Z,1.85
2022-10-17T02:56:15.496Z,1.60
2022-10-17T03:01:18.351Z,1.75
2022-10-17T03:06:20.361Z,1.60
2022-10-17T03:11:21.752Z,1.38
2022-10-17T03:16:25.298Z,1.70
2022-10-17T03:21:26.836Z,2.33
2022-10-17T03:26:28.555Z,1.60
2022-10-17T03:31:31.320Z,1.35
2022-10-17T03:36:34.330Z,1.65
2022-10-17T03:41:36.501Z,1.90
2022-10-17T03:46:38.584Z,1.52
2022-10-17T03:51:40.975Z,1.58
2022-10-17T03:56:47.184Z,1.63
2022-10-17T04:01:52.198Z,1.58
2022-10-17T04:06:53.786Z,1.42
2022-10-17T04:11:55.687Z,1.83
2022-10-17T04:16:58.624Z,1.65
2022-10-17T04:22:01.269Z,1.50
2022-10-17T04:27:07.351Z,1.67
2022-10-17T04:32:12.483Z,1.77
2022-10-17T04:37:29.345Z,1.45
2022-10-17T04:42:32.093Z,1.98
2022-10-17T04:47:34.110Z,1.60
2022-10-17T04:52:35.851Z,1.45
2022-10-17T04:57:37.301Z,2.25
2022-10-17T05:02:46.905Z,1.67
2022-10-17T05:07:49.206Z,1.65
2022-10-17T05:12:55.727Z,1.63
2022-10-17T05:18:00.903Z,2.22
2022-10-17T05:23:03.982Z,2.03
2022-10-17T05:28:10.520Z,2.00
2022-10-17T05:33:14.108Z,2.10
2022-10-17T05:38:15.571Z,1.50
2022-10-17T05:43:19.159Z,1.92
2022-10-17T05:48:23.511Z,1.60
2022-10-17T05:53:25.631Z,1.90
2022-10-17T06:04:04.670Z,1.92
2022-10-17T06:09:07.081Z,1.73
2022-10-17T06:14:12.266Z,1.80
2022-10-17T06:19:15.634Z,1.80
2022-10-17T06:24:17.120Z,2.10
2022-10-17T06:29:19.014Z,1.75
2022-10-17T06:34:26.179Z,2.03
2022-10-17T06:39:27.665Z,2.22
2022-10-17T06:44:35.577Z,2.00
2022-10-17T06:49:55.511Z,1.85
2022-10-17T06:55:06.154Z,2.13
2022-10-17T07:00:16.479Z,2.10
2022-10-17T07:05:23.607Z,1.98
2022-10-17T07:10:26.408Z,1.98
2022-10-17T07:15:27.823Z,3.10
2022-10-17T07:20:30.718Z,1.90
2022-10-17T07:25:35.217Z,2.30
2022-10-17T07:30:42.690Z,2.90
2022-10-17T07:35:46.754Z,2.40
2022-10-17T07:41:03.587Z,2.13
2022-10-17T07:46:05.608Z,2.47
2022-10-17T07:51:10.112Z,2.13
2022-10-17T07:56:12.787Z,2.95
2022-10-17T08:01:15.381Z,2.03
2022-10-17T08:06:18.004Z,2.40
2022-10-17T08:11:19.428Z,1.92
2022-10-17T08:16:20.829Z,2.17
2022-10-17T08:21:22.217Z,1.85
2022-10-17T08:26:23.738Z,1.88
2022-10-17T08:31:25.243Z,1.92
2022-10-17T08:36:26.630Z,2.10
2022-10-17T08:41:34.029Z,2.00
2022-10-17T08:46:39.391Z,1.98
2022-10-17T08:51:49.657Z,1.90
2022-10-17T08:56:55.093Z,2.20
2022-10-17T09:02:21.010Z,2.10
2022-10-17T09:07:32.416Z,2.30
2022-10-17T09:12:47.157Z,2.47
2022-10-17T09:18:21.114Z,2.03
2022-10-17T09:23:40.338Z,2.67
2022-10-17T09:28:46.291Z,1.67
2022-10-17T09:33:54.284Z,2.58
2022-10-17T09:39:04.853Z,2.42
2022-10-17T09:44:30.845Z,2.22
2022-10-17T09:49:34.909Z,2.80
2022-10-17T09:54:45.379Z,2.10
2022-10-17T10:00:04.130Z,2.22
2022-10-17T10:05:19.399Z,2.57
2022-10-17T10:10:27.795Z,2.22
2022-10-17T10:15:33.027Z,2.42
2022-10-17T10:20:36.917Z,1.60
2022-10-17T10:25:38.825Z,1.90
2022-10-17T10:30:40.406Z,2.03
2022-10-17T10:35:41.868Z,2.00
2022-10-17T10:40:50.139Z,2.40
2022-10-17T10:45:52.307Z,2.20
2022-10-17T10:51:02.525Z,2.20
2022-10-17T10:56:20.613Z,1.90
2022-10-17T11:06:44.384Z,2.17
2022-10-17T11:11:52.448Z,1.45
2022-10-17T11:17:05.986Z,1.48
2022-10-17T11:22:26.632Z,1.33
2022-10-17T11:27:30.967Z,1.70
2022-10-17T11:32:43.177Z,1.42
2022-10-17T11:37:49.881Z,1.42
2022-10-17T11:42:58.413Z,1.35
2022-10-17T11:48:10.614Z,1.33
2022-10-17T11:53:21.876Z,1.63
2022-10-17T11:58:53.015Z,1.58
2022-10-17T12:04:25.577Z,1.30
2022-10-17T12:09:38.892Z,1.30
2022-10-17T12:14:45.511Z,1.73
2022-10-17T12:19:46.952Z,1.38
2022-10-17T12:25:02.378Z,1.58
2022-10-17T12:30:25.649Z,1.03
2022-10-17T12:35:28.596Z,1.63
2022-10-17T12:40:36.097Z,1.50
2022-10-17T12:45:57.200Z,1.55
2022-10-17T12:51:30.774Z,1.92
2022-10-17T12:56:44.264Z,2.40
2022-10-17T13:01:48.461Z,1.58
2022-10-17T13:06:54.069Z,1.80
2022-10-17T13:11:58.335Z,1.80
2022-10-17T13:17:07.378Z,2.35
2022-10-17T13:22:15.503Z,2.30
2022-10-17T13:27:31.938Z,2.35
2022-10-17T13:32:39.072Z,2.13
2022-10-17T13:37:43.599Z,2.00
2022-10-17T13:42:45.888Z,2.22
2022-10-17T13:47:47.536Z,2.00
2022-10-17T13:52:48.938Z,2.67
2022-10-17T13:57:50.370Z,2.55
2022-10-17T14:02:51.822Z,2.10
2022-10-17T14:08:16.691Z,2.08
2022-10-17T14:13:30.754Z,2.00
2022-10-17T14:18:37.165Z,3.38
2022-10-17T14:23:42.331Z,2.07
2022-10-17T14:28:47.117Z,2.22
2022-10-17T14:33:51.002Z,2.30
2022-10-17T14:38:52.858Z,1.98
2022-10-17T14:43:57.173Z,2.20
2022-10-17T14:49:07.155Z,2.53
2022-10-17T14:54:24.634Z,2.35
2022-10-17T14:59:52.082Z,2.67
2022-10-17T15:04:47.463Z,3.03
2022-10-17T15:09:50.329Z,2.50
2022-10-17T15:14:52.856Z,2.35
2022-10-17T15:19:55.009Z,2.90
2022-10-17T15:24:56.394Z,2.20
2022-10-17T15:29:58.283Z,2.17
2022-10-17T15:34:59.671Z,2.30
2022-10-17T15:40:01.093Z,2.28
2022-10-17T15:45:02.629Z,1.80
2022-10-17T15:50:06.598Z,2.38
2022-10-17T15:55:09.201Z,2.60
2022-10-17T16:00:19.780Z,3.13
2022-10-17T16:05:24.342Z,3.05
2022-10-17T16:10:26.047Z,3.05
2022-10-17T16:15:28.206Z,3.20
2022-10-17T16:20:29.647Z,3.63
2022-10-17T16:25:32.084Z,2.75
2022-10-17T16:30:40.100Z,2.63
2022-10-17T16:35:41.610Z,2.83
2022-10-17T16:40:43.127Z,2.78
2022-10-17T16:45:44.564Z,2.78
2022-10-17T16:50:45.961Z,2.47
2022-10-17T16:55:59.086Z,3.28
2022-10-17T17:01:01.640Z,2.67
2022-10-17T17:06:04.160Z,2.90
2022-10-17T17:11:10.445Z,4.18
2022-10-17T17:16:18.136Z,4.30
2022-10-17T17:21:19.622Z,3.73
2022-10-17T17:26:22.485Z,3.13
2022-10-17T17:31:30.243Z,3.55
2022-10-17T17:36:34.540Z,4.67
2022-10-17T17:41:36.346Z,3.42
2022-10-17T17:46:37.851Z,3.42
2022-10-17T17:51:39.603Z,3.63
2022-10-17T17:56:41.079Z,4.38
2022-10-17T18:01:42.950Z,3.88
2022-10-17T18:06:44.459Z,4.45
2022-10-17T18:11:45.854Z,3.17
2022-10-17T18:16:47.329Z,3.60
2022-10-17T18:21:48.746Z,4.45
2022-10-17T18:26:50.112Z,4.25
2022-10-17T18:31:51.551Z,3.88
2022-10-17T18:36:55.971Z,2.90
2022-10-17T18:41:57.588Z,3.70
2022-10-17T18:47:02.914Z,3.95
2022-10-17T18:52:05.767Z,4.20
2022-10-17T18:57:07.183Z,3.72
2022-10-17T19:02:10.999Z,4.20
2022-10-17T19:07:12.394Z,4.45
2022-10-17T19:12:13.794Z,4.03
2022-10-17T19:17:15.218Z,3.70
2022-10-17T19:22:16.605Z,3.80
2022-10-17T19:27:18.033Z,4.63
2022-10-17T19:32:22.199Z,4.72
2022-10-17T19:37:24.624Z,4.22
2022-10-17T19:42:26.010Z,3.92
2022-10-17T19:47:27.417Z,4.22
2022-10-17T19:52:29.108Z,4.80
2022-10-17T19:57:30.767Z,5.15
2022-10-17T20:02:32.529Z,3.83
2022-10-17T20:07:34.191Z,4.07
2022-10-17T20:12:35.598Z,4.50
2022-10-17T20:17:37.002Z,3.88
2022-10-17T20:22:38.453Z,4.22
2022-10-17T20:27:39.880Z,4.20
2022-10-17T20:32:41.245Z,3.90
2022-10-17T20:37:42.876Z,4.00
2022-10-17T20:42:44.422Z,3.97
2022-10-17T20:47:52.342Z,4.13
2022-10-17T20:53:10.943Z,4.03
2022-10-17T20:58:15.329Z,4.18
2022-10-17T21:03:16.808Z,4.78
2022-10-17T21:08:18.283Z,3.80
2022-10-17T21:13:21.934Z,4.07
2022-10-17T21:18:23.321Z,3.70
2022-10-17T21:23:24.710Z,3.45
2022-10-17T21:28:26.254Z,4.10
2022-10-17T21:33:28.633Z,3.47
2022-10-17T21:38:30.189Z,3.67
2022-10-17T21:43:32.963Z,4.45
2022-10-17T21:48:34.974Z,3.63
2022-10-17T21:53:37.394Z,3.63
2022-10-17T21:58:39.339Z,3.72
2022-10-17T22:03:45.893Z,3.97
2022-10-17T22:08:48.978Z,4.35
2022-10-17T22:14:03.096Z,3.70
2022-10-17T22:19:06.712Z,4.70
2022-10-17T22:24:11.575Z,3.35
2022-10-17T22:29:13.765Z,3.97
2022-10-17T22:34:16.576Z,3.60
2022-10-17T22:39:18.094Z,3.45
2022-10-17T22:44:19.479Z,4.25
2022-10-17T22:49:20.865Z,4.07
2022-10-17T22:54:22.265Z,3.75
2022-10-17T22:59:23.718Z,4.10
2022-10-17T23:04:25.148Z,4.05
2022-10-17T23:14:28.926Z,4.03
2022-10-17T23:19:30.576Z,3.97
2022-10-17T23:24:32.525Z,3.75
2022-10-17T23:29:34.507Z,4.10
2022-10-17T23:34:35.919Z,3.08
2022-10-17T23:39:37.317Z,3.22
2022-10-17T23:44:38.723Z,3.80
2022-10-17T23:49:40.135Z,4.53
2022-10-17T23:59:47.814Z,3.88
